createdAt,value
2018-06-23T00:00:47.277Z,65.94
2018-06-23T00:03:16.605Z,66.65
2018-06-23T00:05:45.976Z,66.27
2018-06-23T00:08:15.397Z,68.23
2018-06-23T00:10:44.834Z,66.82
2018-06-23T00:13:14.223Z,67.71
2018-06-23T00:15:43.645Z,67.01
2018-06-23T00:18:13.027Z,69.29
2018-06-23T00:20:42.435Z,68.74
2018-06-23T00:23:11.847Z,66.55
2018-06-23T00:25:46.439Z,67.85
2018-06-23T00:28:16.147Z,66.92
2018-06-23T00:30:45.489Z,68.36
2018-06-23T00:33:14.917Z,67.35
2018-06-23T00:35:44.340Z,66.49
2018-06-23T00:38:13.753Z,69.79
2018-06-23T00:40:43.046Z,68.39
2018-06-23T00:43:12.321Z,68.02
2018-06-23T00:45:41.597Z,65.76
2018-06-23T00:48:11.020Z,68.29
2018-06-23T00:50:40.394Z,65.08
2018-06-23T00:53:09.705Z,67.45
2018-06-23T00:55:38.969Z,67.69
2018-06-23T00:58:08.302Z,65.98
2018-06-23T01:00:37.625Z,66.91
2018-06-23T01:03:06.953Z,64.38
2018-06-23T01:05:36.249Z,65.49
2018-06-23T01:08:05.610Z,66.02
2018-06-23T01:10:34.888Z,66.89
2018-06-23T01:13:04.262Z,67.82
2018-06-23T01:15:33.565Z,68.21
2018-06-23T01:18:02.997Z,66.48
2018-06-23T01:20:32.322Z,66.00
2018-06-23T01:23:01.660Z,66.42
2018-06-23T01:25:30.990Z,65.29
2018-06-23T01:28:00.275Z,66.42
2018-06-23T01:30:29.691Z,66.33
2018-06-23T01:32:58.995Z,66.46
2018-06-23T01:35:28.296Z,65.82
2018-06-23T01:37:57.604Z,67.02
2018-06-23T01:40:26.900Z,66.84
2018-06-23T01:42:56.225Z,67.85
2018-06-23T01:45:25.590Z,68.98
2018-06-23T01:47:54.881Z,67.33
2018-06-23T01:50:24.197Z,66.70
2018-06-23T01:52:53.465Z,67.24
2018-06-23T01:55:22.776Z,68.04
2018-06-23T01:57:52.158Z,68.93
2018-06-23T02:00:21.569Z,67.32
2018-06-23T02:02:50.880Z,67.89
2018-06-23T02:05:21.226Z,67.18
2018-06-23T02:07:50.525Z,66.79
2018-06-23T02:10:19.909Z,65.28
2018-06-23T02:12:49.213Z,65.84
2018-06-23T02:15:18.518Z,64.60
2018-06-23T02:17:52.979Z,64.60
2018-06-23T02:20:27.594Z,64.10
2018-06-23T02:23:02.050Z,66.41
2018-06-23T02:25:36.562Z,66.78
2018-06-23T02:28:11.167Z,64.87
2018-06-23T02:31:45.809Z,65.40
2018-06-23T02:35:17.597Z,64.21
2018-06-23T02:37:46.894Z,63.65
2018-06-23T02:40:16.173Z,63.79
2018-06-23T02:42:46.540Z,63.25
2018-06-23T02:45:15.801Z,63.40
2018-06-23T02:47:45.126Z,64.09
2018-06-23T02:50:14.416Z,65.73
2018-06-23T02:52:43.798Z,67.05
2018-06-23T02:55:13.069Z,65.86
2018-06-23T02:57:42.446Z,65.19
2018-06-23T03:03:07.144Z,64.27
2018-06-23T03:05:36.446Z,65.22
2018-06-23T03:08:05.906Z,64.26
2018-06-23T03:10:35.257Z,66.87
2018-06-23T03:13:04.616Z,66.74
2018-06-23T03:15:33.943Z,65.36
2018-06-23T03:18:03.225Z,64.11
2018-06-23T03:20:32.876Z,64.00
2018-06-23T03:23:02.225Z,64.94
2018-06-23T03:25:31.513Z,66.51
2018-06-23T03:28:00.881Z,64.64
2018-06-23T03:30:30.314Z,63.96
2018-06-23T03:32:59.594Z,65.83
2018-06-23T03:35:28.904Z,64.41
2018-06-23T03:37:58.199Z,64.19
2018-06-23T03:40:27.547Z,64.43
2018-06-23T03:42:56.816Z,63.64
2018-06-23T03:45:26.153Z,63.60
2018-06-23T03:47:55.425Z,63.33
2018-06-23T03:50:24.768Z,65.73
2018-06-23T03:52:54.065Z,64.56
2018-06-23T03:55:23.384Z,64.66
2018-06-23T03:57:52.654Z,63.21
2018-06-23T04:00:21.944Z,63.18
2018-06-23T04:02:51.226Z,62.02
2018-06-23T04:05:20.616Z,63.59
2018-06-23T04:07:50.010Z,63.30
2018-06-23T04:10:19.366Z,63.28
2018-06-23T04:12:48.624Z,63.44
2018-06-23T04:15:17.904Z,64.24
2018-06-23T04:17:47.197Z,63.05
2018-06-23T04:20:16.496Z,63.61
2018-06-23T04:22:45.767Z,63.70
2018-06-23T04:25:15.073Z,63.23
2018-06-23T04:27:44.429Z,62.18
2018-06-23T04:30:13.697Z,64.14
2018-06-23T04:32:43.025Z,62.89
2018-06-23T04:35:12.314Z,64.39
2018-06-23T04:37:41.645Z,62.18
2018-06-23T04:40:10.972Z,66.28
2018-06-23T04:42:40.333Z,64.86
2018-06-23T04:45:09.725Z,64.75
2018-06-23T04:47:39.049Z,64.03
2018-06-23T04:50:08.618Z,65.57
2018-06-23T04:52:38.030Z,65.47
2018-06-23T04:55:07.386Z,66.90
2018-06-23T04:57:36.717Z,64.00
2018-06-23T05:00:06.110Z,62.51
2018-06-23T05:02:35.617Z,61.56
2018-06-23T05:05:04.933Z,64.13
2018-06-23T05:07:34.249Z,62.64
2018-06-23T05:10:03.567Z,61.79
2018-06-23T05:12:32.845Z,61.34
2018-06-23T05:15:02.205Z,62.02
2018-06-23T05:17:31.597Z,61.77
2018-06-23T05:20:00.925Z,61.05
2018-06-23T05:22:30.264Z,62.30
2018-06-23T05:24:59.630Z,63.65
2018-06-23T05:27:28.947Z,65.61
2018-06-23T05:29:58.226Z,63.56
2018-06-23T05:32:27.513Z,63.60
2018-06-23T05:34:57.068Z,65.02
2018-06-23T05:37:26.407Z,64.92
2018-06-23T05:39:55.712Z,64.39
2018-06-23T05:42:25.123Z,61.83
2018-06-23T05:44:54.527Z,62.46
2018-06-23T05:47:24.169Z,62.83
2018-06-23T05:49:53.566Z,65.39
2018-06-23T05:52:22.993Z,64.75
2018-06-23T05:54:52.455Z,65.70
2018-06-23T05:57:21.757Z,65.10
2018-06-23T05:59:51.154Z,64.58
2018-06-23T06:02:20.481Z,66.70
2018-06-23T06:04:49.851Z,66.32
2018-06-23T06:07:19.169Z,65.99
2018-06-23T06:09:48.454Z,66.83
2018-06-23T06:12:17.838Z,67.42
2018-06-23T06:14:47.213Z,67.06
2018-06-23T06:17:37.858Z,66.28
2018-06-23T06:20:11.901Z,66.16
2018-06-23T06:22:43.407Z,66.16
2018-06-23T06:25:13.430Z,65.71
2018-06-23T06:27:42.873Z,66.54
2018-06-23T06:30:12.775Z,67.21
2018-06-23T06:32:42.151Z,66.34
2018-06-23T06:35:11.542Z,65.95
2018-06-23T06:37:40.877Z,66.40
2018-06-23T06:40:10.225Z,66.41
2018-06-23T06:42:39.585Z,67.81
2018-06-23T06:45:08.961Z,70.11
2018-06-23T06:47:38.317Z,67.74
2018-06-23T06:50:07.649Z,66.77
2018-06-23T06:52:37.045Z,68.17
2018-06-23T06:55:06.459Z,68.01
2018-06-23T06:57:35.894Z,69.25
2018-06-23T07:00:05.744Z,72.23
2018-06-23T07:02:35.236Z,69.35
2018-06-23T07:05:04.812Z,70.85
2018-06-23T07:07:34.112Z,68.76
2018-06-23T07:10:03.509Z,68.95
2018-06-23T07:12:32.853Z,68.19
2018-06-23T07:15:02.229Z,66.35
2018-06-23T07:17:31.601Z,69.74
2018-06-23T07:20:00.905Z,67.90
2018-06-23T07:22:30.269Z,66.91
2018-06-23T07:24:59.554Z,67.28
2018-06-23T07:27:28.880Z,68.06
2018-06-23T07:29:58.160Z,66.52
2018-06-23T07:32:27.529Z,66.86
2018-06-23T07:34:56.995Z,66.36
2018-06-23T07:37:26.197Z,68.85
2018-06-23T07:39:55.545Z,69.32
2018-06-23T07:42:24.945Z,70.32
2018-06-23T07:44:54.293Z,72.74
2018-06-23T07:47:23.734Z,71.29
2018-06-23T07:49:53.023Z,73.61
2018-06-23T07:52:22.324Z,72.29
2018-06-23T07:54:51.888Z,71.43
2018-06-23T07:57:21.410Z,71.21
2018-06-23T07:59:50.862Z,71.73
2018-06-23T08:02:20.258Z,72.13
2018-06-23T08:04:49.621Z,72.93
2018-06-23T08:07:19.077Z,70.64
2018-06-23T08:09:48.460Z,71.62
2018-06-23T08:12:18.050Z,71.76
2018-06-23T08:14:47.544Z,72.97
2018-06-23T08:17:17.082Z,72.88
2018-06-23T08:19:46.558Z,72.76
2018-06-23T08:22:15.972Z,73.40
2018-06-23T08:24:45.407Z,72.24
2018-06-23T08:27:14.925Z,71.91
2018-06-23T08:29:44.362Z,73.43
2018-06-23T08:32:13.737Z,74.13
2018-06-23T08:34:43.309Z,71.65
2018-06-23T08:37:12.922Z,71.62
2018-06-23T08:39:42.274Z,69.37
2018-06-23T08:42:11.857Z,70.04
2018-06-23T08:44:41.202Z,67.81
2018-06-23T08:47:10.631Z,66.75
2018-06-23T08:49:40.013Z,65.55
2018-06-23T08:52:09.513Z,64.61
2018-06-23T08:54:38.957Z,67.20
2018-06-23T08:57:08.327Z,65.78
2018-06-23T08:59:37.858Z,64.44
2018-06-23T09:02:07.450Z,65.80
2018-06-23T09:04:36.814Z,65.15
2018-06-23T09:07:06.148Z,64.96
2018-06-23T09:09:35.526Z,66.25
2018-06-23T09:12:05.059Z,62.65
2018-06-23T09:14:34.439Z,64.04
2018-06-23T09:17:03.930Z,63.32
2018-06-23T09:19:33.363Z,66.45
2018-06-23T09:22:02.896Z,64.96
2018-06-23T09:24:32.274Z,67.50
2018-06-23T09:27:01.823Z,65.61
2018-06-23T09:29:31.204Z,65.64
2018-06-23T09:32:00.558Z,64.02
2018-06-23T09:34:30.025Z,64.19
2018-06-23T09:36:59.331Z,62.80
2018-06-23T09:39:28.850Z,66.38
2018-06-23T09:41:58.248Z,64.41
2018-06-23T09:44:27.637Z,63.75
2018-06-23T09:46:56.991Z,61.04
2018-06-23T09:49:26.436Z,55.90
2018-06-23T09:51:55.813Z,51.48
2018-06-23T09:54:25.204Z,49.44
2018-06-23T09:56:54.752Z,44.19
2018-06-23T09:59:24.085Z,44.54
2018-06-23T10:01:53.419Z,45.50
2018-06-23T10:04:22.857Z,46.91
2018-06-23T10:06:52.264Z,47.22
2018-06-23T10:09:21.718Z,47.97
2018-06-23T10:11:51.103Z,47.94
2018-06-23T10:14:20.469Z,48.41
2018-06-23T10:16:49.769Z,48.22
2018-06-23T10:19:19.143Z,47.41
2018-06-23T10:21:48.784Z,48.59
2018-06-23T10:24:18.212Z,49.69
2018-06-23T10:26:47.686Z,45.43
2018-06-23T10:29:16.980Z,44.23
2018-06-23T10:31:46.365Z,40.10
2018-06-23T10:34:15.772Z,40.14
2018-06-23T10:36:45.737Z,40.43
2018-06-23T10:39:15.053Z,42.34
2018-06-23T10:41:44.774Z,43.69
2018-06-23T10:44:14.129Z,46.49
2018-06-23T10:46:44.569Z,45.65
2018-06-23T10:49:14.082Z,44.12
2018-06-23T10:51:43.456Z,43.58
2018-06-23T10:54:13.421Z,38.74
2018-06-23T10:56:43.156Z,37.68
2018-06-23T10:59:14.455Z,34.82
2018-06-23T11:01:45.487Z,32.29
2018-06-23T11:04:17.699Z,36.60
2018-06-23T11:06:47.069Z,39.80
2018-06-23T11:09:16.556Z,41.76
2018-06-23T11:11:46.002Z,44.59
2018-06-23T11:14:16.600Z,42.92
2018-06-23T11:16:45.973Z,41.35
2018-06-23T11:19:15.386Z,40.10
2018-06-23T11:21:44.837Z,40.60
2018-06-23T11:24:14.268Z,41.39
2018-06-23T11:26:43.645Z,44.71
2018-06-23T11:29:13.013Z,44.00
2018-06-23T11:31:42.377Z,43.59
2018-06-23T11:34:11.723Z,42.22
2018-06-23T11:36:41.046Z,39.80
2018-06-23T11:39:11.445Z,39.00
2018-06-23T11:41:40.815Z,38.60
2018-06-23T11:44:10.132Z,39.13
2018-06-23T11:46:39.572Z,38.55
2018-06-23T11:49:08.966Z,39.98
2018-06-23T11:51:38.407Z,42.54
2018-06-23T11:54:07.722Z,40.58
2018-06-23T11:56:37.079Z,40.23
2018-06-23T11:59:06.518Z,40.98
2018-06-23T12:01:36.143Z,43.31
2018-06-23T12:04:05.521Z,42.98
2018-06-23T12:06:34.905Z,42.34
2018-06-23T12:09:06.136Z,42.76
2018-06-23T12:11:35.429Z,43.07
2018-06-23T12:14:04.753Z,42.76
2018-06-23T12:16:34.120Z,45.74
2018-06-23T12:19:03.598Z,47.24
2018-06-23T12:21:32.996Z,51.26
2018-06-23T12:24:02.427Z,50.20
2018-06-23T12:26:31.732Z,47.58
2018-06-23T12:29:01.113Z,47.87
2018-06-23T12:31:30.464Z,50.71
2018-06-23T12:34:00.592Z,52.78
2018-06-23T12:36:29.994Z,49.16
2018-06-23T12:38:59.328Z,47.25
2018-06-23T12:41:28.742Z,46.79
2018-06-23T12:43:58.115Z,47.63
2018-06-23T12:46:27.443Z,41.76
2018-06-23T12:48:56.769Z,43.99
2018-06-23T12:51:26.082Z,44.01
2018-06-23T12:53:55.404Z,42.95
2018-06-23T12:56:24.791Z,40.63
2018-06-23T12:58:54.124Z,42.33
2018-06-23T13:01:24.437Z,41.75
2018-06-23T13:03:53.832Z,42.41
2018-06-23T13:06:23.323Z,41.32
2018-06-23T13:08:52.642Z,42.53
2018-06-23T13:11:21.965Z,41.31
2018-06-23T13:13:51.333Z,42.31
2018-06-23T13:16:20.684Z,42.00
2018-06-23T13:18:50.002Z,42.76
2018-06-23T13:21:19.305Z,42.08
2018-06-23T13:23:48.623Z,42.10
2018-06-23T13:26:17.992Z,40.95
2018-06-23T13:28:47.295Z,39.38
2018-06-23T13:31:16.607Z,40.32
2018-06-23T13:33:45.895Z,40.65
2018-06-23T13:36:15.218Z,39.53
2018-06-23T13:38:44.502Z,40.72
2018-06-23T13:41:13.888Z,38.19
2018-06-23T13:43:43.231Z,38.93
2018-06-23T13:46:12.568Z,39.45
2018-06-23T13:48:41.962Z,38.41
2018-06-23T13:51:11.379Z,39.16
2018-06-23T13:53:40.705Z,39.22
2018-06-23T13:56:10.007Z,40.12
2018-06-23T13:58:39.365Z,39.15
2018-06-23T14:01:08.658Z,39.87
2018-06-23T14:03:38.010Z,41.21
2018-06-23T14:06:07.372Z,40.09
2018-06-23T14:08:36.774Z,38.62
2018-06-23T14:11:06.072Z,40.95
2018-06-23T14:13:35.408Z,41.33
2018-06-23T14:16:04.849Z,40.64
2018-06-23T14:18:34.156Z,42.11
2018-06-23T14:21:03.952Z,41.51
2018-06-23T14:23:33.423Z,39.02
2018-06-23T14:26:03.535Z,39.54
2018-06-23T14:28:33.089Z,40.53
2018-06-23T14:31:03.000Z,38.17
2018-06-23T14:33:33.098Z,39.45
2018-06-23T14:36:03.019Z,39.24
2018-06-23T14:38:33.160Z,38.29
2018-06-23T14:41:03.095Z,37.87
2018-06-23T14:43:32.719Z,38.71
2018-06-23T14:46:04.125Z,40.74
2018-06-23T14:48:33.715Z,38.33
2018-06-23T14:51:04.445Z,39.34
2018-06-23T14:53:34.663Z,39.71
2018-06-23T14:56:04.787Z,39.00
2018-06-23T14:58:34.395Z,39.05
2018-06-23T15:01:04.296Z,38.55
2018-06-23T15:03:34.082Z,38.99
2018-06-23T15:06:08.083Z,37.25
2018-06-23T15:08:48.626Z,37.93
2018-06-23T15:11:30.359Z,38.05
2018-06-23T15:14:00.031Z,37.92
2018-06-23T15:16:30.219Z,38.14
2018-06-23T15:19:00.521Z,39.03
2018-06-23T15:21:30.194Z,39.39
2018-06-23T15:23:59.699Z,37.57
2018-06-23T15:26:29.387Z,38.06
2018-06-23T15:28:59.072Z,39.79
2018-06-23T15:31:29.116Z,40.09
2018-06-23T15:33:59.213Z,39.23
2018-06-23T15:36:29.192Z,38.41
2018-06-23T15:38:58.782Z,38.10
2018-06-23T15:41:28.468Z,38.46
2018-06-23T15:43:58.374Z,37.51
2018-06-23T15:46:28.416Z,39.54
2018-06-23T15:48:58.388Z,40.28
2018-06-23T15:51:28.378Z,39.90
2018-06-23T15:53:59.436Z,41.39
2018-06-23T15:56:28.903Z,40.60
2018-06-23T15:58:58.405Z,39.54
2018-06-23T16:01:27.874Z,39.83
2018-06-23T16:03:57.669Z,41.73
2018-06-23T16:06:27.180Z,40.98
2018-06-23T16:08:56.670Z,40.75
2018-06-23T16:11:26.272Z,40.97
2018-06-23T16:13:55.812Z,40.51
2018-06-23T16:16:26.319Z,41.95
2018-06-23T16:18:55.778Z,41.67
2018-06-23T16:21:26.124Z,41.25
2018-06-23T16:23:55.665Z,41.70
2018-06-23T16:26:26.069Z,41.79
2018-06-23T16:28:56.041Z,41.72
2018-06-23T16:31:25.648Z,41.27
2018-06-23T16:33:55.856Z,40.60
2018-06-23T16:36:25.487Z,41.74
2018-06-23T16:38:56.240Z,41.60
2018-06-23T16:41:25.708Z,42.29
2018-06-23T16:43:56.118Z,41.52
2018-06-23T16:46:25.939Z,42.69
2018-06-23T16:48:55.982Z,44.21
2018-06-23T16:51:25.777Z,42.80
2018-06-23T16:53:55.812Z,42.81
2018-06-23T16:56:25.997Z,43.47
2018-06-23T16:58:55.525Z,43.63
2018-06-23T17:01:25.219Z,43.49
2018-06-23T17:03:55.441Z,44.16
2018-06-23T17:06:25.703Z,43.18
2018-06-23T17:08:56.689Z,42.26
2018-06-23T17:11:26.182Z,43.92
2018-06-23T17:13:55.551Z,43.58
2018-06-23T17:16:25.029Z,41.55
2018-06-23T17:18:54.388Z,42.38
2018-06-23T17:21:23.918Z,41.71
2018-06-23T17:23:53.212Z,42.71
2018-06-23T17:26:22.557Z,43.78
2018-06-23T17:28:51.857Z,43.33
2018-06-23T17:31:21.236Z,44.03
2018-06-23T17:33:50.617Z,43.83
2018-06-23T17:36:19.955Z,43.01
2018-06-23T17:38:49.382Z,44.46
2018-06-23T17:41:18.689Z,44.30
2018-06-23T17:43:47.976Z,44.53
2018-06-23T17:46:17.368Z,44.27
2018-06-23T17:48:46.693Z,44.14
2018-06-23T17:51:16.121Z,43.83
2018-06-23T17:53:45.468Z,42.33
2018-06-23T17:56:14.957Z,44.55
2018-06-23T17:58:44.345Z,44.57
2018-06-23T18:01:13.812Z,42.79
2018-06-23T18:03:43.153Z,43.67
2018-06-23T18:06:12.496Z,44.53
2018-06-23T18:08:41.882Z,44.58
2018-06-23T18:11:11.207Z,45.15
2018-06-23T18:13:40.575Z,45.04
2018-06-23T18:16:09.912Z,43.82
2018-06-23T18:18:39.297Z,45.62
2018-06-23T18:21:09.642Z,46.32
2018-06-23T18:23:39.037Z,45.44
2018-06-23T18:26:08.377Z,45.61
2018-06-23T18:28:37.666Z,44.76
2018-06-23T18:31:06.961Z,44.67
2018-06-23T18:33:36.265Z,45.12
2018-06-23T18:36:05.558Z,44.84
2018-06-23T18:38:34.986Z,45.44
2018-06-23T18:41:04.281Z,46.24
2018-06-23T18:43:33.637Z,45.86
2018-06-23T18:46:03.047Z,45.71
2018-06-23T18:48:32.685Z,44.98
2018-06-23T18:51:02.045Z,44.95
2018-06-23T18:53:31.389Z,46.25
2018-06-23T18:56:00.730Z,47.40
2018-06-23T18:58:30.034Z,46.65
2018-06-23T19:00:59.447Z,47.33
2018-06-23T19:03:28.810Z,47.17
2018-06-23T19:05:58.252Z,47.07
2018-06-23T19:08:27.701Z,47.75
2018-06-23T19:10:56.982Z,47.29
2018-06-23T19:13:26.332Z,47.45
2018-06-23T19:15:55.747Z,46.96
2018-06-23T19:18:25.077Z,48.58
2018-06-23T19:20:54.396Z,48.36
2018-06-23T19:23:23.726Z,46.61
2018-06-23T19:25:53.064Z,49.41
2018-06-23T19:28:22.440Z,47.81
2018-06-23T19:30:51.766Z,47.91
2018-06-23T19:33:21.040Z,48.35
2018-06-23T19:35:50.401Z,48.31
2018-06-23T19:38:19.727Z,47.94
2018-06-23T19:40:49.120Z,48.68
2018-06-23T19:43:18.498Z,47.81
2018-06-23T19:45:47.790Z,49.28
2018-06-23T19:48:17.129Z,48.38
2018-06-23T19:50:46.414Z,47.51
2018-06-23T19:53:15.794Z,47.55
2018-06-23T19:55:45.097Z,47.24
2018-06-23T19:58:14.632Z,48.32
2018-06-23T20:00:43.974Z,48.42
2018-06-23T20:03:13.345Z,47.69
2018-06-23T20:05:42.697Z,47.39
2018-06-23T20:08:11.987Z,47.93
2018-06-23T20:10:41.359Z,47.92
2018-06-23T20:13:23.042Z,48.13
2018-06-23T20:15:52.525Z,47.91
2018-06-23T20:18:22.032Z,47.56
2018-06-23T20:20:51.460Z,47.89
2018-06-23T20:23:20.867Z,48.66
2018-06-23T20:25:50.197Z,48.16
2018-06-23T20:28:20.356Z,47.85
2018-06-23T20:30:49.999Z,48.79
2018-06-23T20:33:19.296Z,49.24
2018-06-23T20:35:48.657Z,48.94
2018-06-23T20:38:17.981Z,48.57
2018-06-23T20:40:47.419Z,49.94
2018-06-23T20:43:16.730Z,50.09
2018-06-23T20:45:46.082Z,49.34
2018-06-23T20:48:15.417Z,49.03
2018-06-23T20:50:44.698Z,51.25
2018-06-23T20:53:13.993Z,50.57
2018-06-23T20:55:43.261Z,51.61
2018-06-23T20:58:12.635Z,50.61
2018-06-23T21:00:41.977Z,51.37
2018-06-23T21:03:12.085Z,51.18
2018-06-23T21:05:41.350Z,51.26
2018-06-23T21:08:10.604Z,50.60
2018-06-23T21:10:43.685Z,51.91
2018-06-23T21:13:13.174Z,51.70
2018-06-23T21:15:42.626Z,52.90
2018-06-23T21:18:11.953Z,52.10
2018-06-23T21:20:41.285Z,53.05
2018-06-23T21:23:10.546Z,53.68
2018-06-23T21:25:39.837Z,53.23
2018-06-23T21:28:09.239Z,53.68
2018-06-23T21:30:38.587Z,54.11
2018-06-23T21:33:07.989Z,53.17
2018-06-23T21:35:37.258Z,53.67
2018-06-23T21:38:06.537Z,55.14
2018-06-23T21:40:35.910Z,53.82
2018-06-23T21:43:05.232Z,53.17
2018-06-23T21:45:34.529Z,53.78
2018-06-23T21:48:03.846Z,54.52
2018-06-23T21:50:33.197Z,53.83
2018-06-23T21:53:02.569Z,56.23
2018-06-23T21:55:31.861Z,54.85
2018-06-23T21:58:01.197Z,53.78
2018-06-23T22:00:34.237Z,55.83
2018-06-23T22:03:06.789Z,55.57
2018-06-23T22:05:36.174Z,56.19
2018-06-23T22:08:06.185Z,54.52
2018-06-23T22:10:36.527Z,54.83
2018-06-23T22:13:06.155Z,55.81
2018-06-23T22:15:36.285Z,55.41
2018-06-23T22:18:05.673Z,55.54
2018-06-23T22:20:34.994Z,56.36
2018-06-23T22:23:04.355Z,55.80
2018-06-23T22:25:33.682Z,56.20
2018-06-23T22:28:03.012Z,55.19
2018-06-23T22:30:32.373Z,55.48
2018-06-23T22:33:01.695Z,57.00
2018-06-23T22:35:31.022Z,56.07
2018-06-23T22:38:00.350Z,56.03
2018-06-23T22:40:29.708Z,56.16
2018-06-23T22:42:59.064Z,56.77
2018-06-23T22:45:28.376Z,56.45
2018-06-23T22:47:57.716Z,56.01
2018-06-23T22:50:27.000Z,56.31
2018-06-23T22:52:56.352Z,56.35
2018-06-23T22:55:25.698Z,56.02
2018-06-23T22:57:54.992Z,54.82
2018-06-23T23:00:24.357Z,56.90
2018-06-23T23:02:53.641Z,56.37
2018-06-23T23:05:22.936Z,55.92
2018-06-23T23:07:52.273Z,55.82
2018-06-23T23:10:22.024Z,56.15
2018-06-23T23:12:51.462Z,56.28
2018-06-23T23:15:20.833Z,56.45
2018-06-23T23:17:50.167Z,56.90
2018-06-23T23:20:19.446Z,56.47
2018-06-23T23:22:48.762Z,56.19
2018-06-23T23:25:18.109Z,56.28
2018-06-23T23:27:47.435Z,56.69
2018-06-23T23:30:16.818Z,57.66
2018-06-23T23:32:46.085Z,56.32
2018-06-23T23:35:15.360Z,56.96
2018-06-23T23:37:44.655Z,56.59
2018-06-23T23:40:13.951Z,57.04
2018-06-23T23:42:43.238Z,57.67
2018-06-23T23:45:12.674Z,56.60
2018-06-23T23:47:41.969Z,56.97
2018-06-23T23:50:11.253Z,58.50
2018-06-23T23:52:40.577Z,59.42
2018-06-23T23:55:09.908Z,58.46
2018-06-23T23:57:39.216Z,59.50
